Terminal Aerodrome Forecast
Issued by NWS

Home | Current Version | Previous Version | Text Only | Print | Product List | Glossary On
Versions: 1 2 3 4 5 6 7 8 9 10 11 12 13
000
FTUS45 KTFX 281120
TAFLWT
TAF
KLWT 281120Z 2812/2912 12006KT P6SM BKN120
     FM281800 32008KT P6SM BKN150
     FM290800 14005KT P6SM SCT150=

USA.gov is the U.S. government's official web portal to all federal, state and local government web resources and services.